Latest Weather Observations for Dalby

IDQ60801

Issued at 7:05 pm EST Saturday 26 July 2014 (issued every 30 minutes, with the page automatically refreshed every 10 minutes)

About weather observations | Map of weather stations | Latest weather observations for QLD | Other Formats
Station Details ID: 041522 Name: DALBY AIRPORT Lat: -27.16 Lon: 151.26 Height: 343.9 m
Data from the previous 72 hours. | See also: Recent months at Dalby
Date/Time
EST
Temp
°C
App
Temp
°C
Dew
Point
Rel
Hum
%
Delta-T
°C
Wind Press
QNH
hPa
Press
MSL
hPa
Rain
since 9 am
mm
Dir
 
Spd
km/h
Gust
km/h
Spd
kts
Gust
kts
26/07:00pm 13.6 12.5 11.8 89 1.0 N 9 11 5 6 1024.7 1024.7 0.4
26/06:30pm 14.7 13.1 12.7 88 1.1 N 13 15 7 8 1024.6 - 0.4
26/06:00pm 14.9 13.3 12.9 88 1.1 N 13 15 7 8 1024.5 1024.5 0.4
26/05:30pm 15.2 13.7 13.2 88 1.1 N 13 15 7 8 1024.4 - 0.4
26/05:00pm 15.4 14.0 13.4 88 1.1 NNW 13 15 7 8 1024.2 1024.2 0.4
26/04:30pm 15.7 14.7 13.5 87 1.3 NNW 11 15 6 8 1024.4 - 0.4
26/04:00pm 15.9 14.6 13.7 87 1.3 N 13 15 7 8 1024.3 1024.3 0.4
26/03:30pm 16.1 15.3 13.0 82 1.8 NNW 9 13 5 7 1024.2 - 0.4
26/03:00pm 16.3 14.8 11.9 75 2.4 WNW 11 17 6 9 1024.3 1024.3 0.4
26/02:30pm 18.7 15.2 11.0 61 4.2 SW 20 26 11 14 1024.5 - 0.0
26/02:00pm 19.9 16.3 10.6 55 5.1 WSW 20 26 11 14 1024.2 1024.2 0.0
26/01:30pm 20.2 15.9 10.6 54 5.3 WNW 24 30 13 16 1024.4 - 0.0
26/01:00pm 20.2 16.2 10.3 53 5.4 WNW 22 28 12 15 1024.9 1024.9 0.0
26/12:30pm 20.5 16.4 11.4 56 5.1 NNW 24 33 13 18 1025.1 - 0.0
26/12:00pm 20.7 16.6 11.6 56 5.1 NNW 24 35 13 19 1025.6 1025.6 0.0
26/11:30am 20.7 16.4 12.1 58 4.9 N 26 35 14 19 1025.8 - 0.0
26/11:00am 20.4 16.6 12.4 60 4.5 N 24 32 13 17 1026.2 1026.3 0.0
26/10:30am 19.5 15.7 12.3 63 4.1 NNW 24 28 13 15 1026.8 - 0.0
26/10:00am 17.8 16.1 12.5 71 3.0 N 13 17 7 9 1026.6 1026.7 0.0
26/09:30am 16.0 15.5 12.2 78 2.1 NNE 6 9 3 5 1026.8 - 0.0
26/09:00am 14.4 14.8 11.4 82 1.6 CALM 0 0 0 0 1026.8 1026.9 0.0
26/08:30am 13.6 13.3 11.3 86 1.2 S 4 7 2 4 1027.2 - 0.0
26/08:00am 12.3 12.5 10.5 89 0.9 CALM 0 4 0 2 1027.3 1027.3 0.0
26/07:30am 11.2 10.1 9.8 91 0.7 SW 6 7 3 4 1026.6 - 0.0
26/07:00am 9.7 7.9 8.0 89 0.8 ESE 7 9 4 5 1026.4 1026.5 0.0
26/06:30am 10.3 8.9 8.9 91 0.7 S 6 9 3 5 1026.3 - 0.0
26/06:00am 10.3 9.6 8.7 90 0.8 S 2 9 1 5 1025.9 1026.0 0.0
26/05:30am 9.7 9.2 7.8 88 0.9 CALM 0 0 0 0 1025.6 - 0.0
26/05:00am 10.2 8.6 8.8 91 0.7 S 7 9 4 5 1025.5 1025.5 0.0
26/04:30am 10.0 8.3 7.6 85 1.2 SE 6 6 3 3 1025.2 - 0.0
26/04:00am 11.2 10.6 8.8 85 1.2 WNW 2 7 1 4 1025.2 1025.2 0.0
26/03:30am 12.7 11.5 10.2 85 1.3 NNW 7 11 4 6 1025.3 - 0.0
26/03:00am 12.8 11.2 10.3 85 1.3 N 9 11 5 6 1025.4 1025.4 0.0
26/02:30am 12.3 12.1 10.4 88 1.0 WNW 2 6 1 3 1025.2 - 0.0
26/02:00am 12.5 11.4 10.0 85 1.3 N 6 11 3 6 1025.3 1025.3 0.0
26/01:30am 14.1 11.2 11.1 82 1.6 NNE 17 20 9 11 1025.4 - 0.0
26/01:00am 12.7 11.5 9.7 82 1.6 N 6 11 3 6 1025.5 1025.5 0.0
26/12:30am 13.8 11.2 10.6 81 1.7 NNE 15 19 8 10 1025.2 - 0.0
26/12:00am 14.0 10.7 10.8 81 1.7 NE 19 22 10 12 1025.2 1025.2 0.0
 
Date/Time
EST
Temp
°C
App
Temp
°C
Dew
Point
Rel
Hum
%
Delta-T
°C
Wind Press
QNH
hPa
Press
MSL
hPa
Rain
since 9 am
mm
Dir
 
Spd
km/h
Gust
km/h
Spd
kts
Gust
kts
25/11:30pm 14.3 11.1 11.1 81 1.7 NE 19 24 10 13 1025.3 - 0.0
25/11:00pm 12.2 9.1 8.9 80 1.7 NE 15 17 8 9 1025.5 1025.5 0.0
25/10:30pm 12.4 8.8 8.5 77 2.0 NE 17 17 9 9 1025.7 - 0.0
25/10:00pm 12.0 8.1 7.1 72 2.4 NE 17 17 9 9 1025.9 1026.0 0.0
25/09:30pm 12.4 8.9 7.3 71 2.5 NE 15 17 8 9 1025.7 - 0.0
25/09:00pm 11.3 7.5 5.6 68 2.7 NE 15 17 8 9 1025.7 1025.7 0.0
25/08:30pm 12.0 8.1 5.4 64 3.1 NE 15 15 8 8 1025.6 - 0.0
25/08:00pm 12.8 9.7 5.7 62 3.4 NNE 11 13 6 7 1025.2 1025.2 0.0
25/07:30pm 14.2 12.1 5.6 56 4.1 N 6 9 3 5 1024.9 - 0.0
25/07:00pm 14.7 11.6 5.5 54 4.4 NE 11 15 6 8 1024.7 1024.7 0.0
25/06:30pm 15.8 12.2 5.1 49 5.2 NNE 13 15 7 8 1024.2 - 0.0
25/06:00pm 17.6 13.6 4.9 43 6.2 NNE 15 15 8 8 1023.8 1023.9 0.0
25/05:30pm 20.8 16.9 5.2 36 7.8 N 15 20 8 11 1023.3 - 0.0
25/05:00pm 22.7 18.0 5.2 32 8.8 N 19 28 10 15 1022.9 1022.9 0.0
25/04:30pm 23.4 19.6 5.8 32 9.1 N 15 24 8 13 1022.6 - 0.0
25/04:00pm 23.2 19.5 4.7 30 9.3 N 13 20 7 11 1022.4 1022.4 0.0
25/03:30pm 23.9 21.7 5.3 30 9.5 NNW 6 13 3 7 1022.3 - 0.0
25/03:00pm 23.9 21.1 5.3 30 9.5 NE 9 17 5 9 1022.4 1022.4 0.0
25/02:30pm 23.6 21.1 4.5 29 9.6 E 7 13 4 7 1022.5 - 0.0
25/02:00pm 23.2 19.5 4.7 30 9.3 N 13 20 7 11 1022.7 1022.7 0.0
25/01:30pm 23.5 19.6 5.4 31 9.3 N 15 24 8 13 1023.1 - 0.0
25/01:00pm 23.1 20.4 5.5 32 9.0 NNW 9 17 5 9 1023.5 1023.6 0.0
25/12:30pm 22.8 18.0 5.7 33 8.8 NNE 20 26 11 14 1024.1 - 0.0
25/12:00pm 22.6 19.5 5.5 33 8.7 N 11 17 6 9 1024.8 1024.8 0.0
25/11:30am 21.6 19.8 7.8 41 7.3 NW 7 15 4 8 1025.3 - 0.0
25/11:00am 20.8 18.8 8.8 46 6.4 WNW 9 15 5 8 1025.8 1025.8 0.0
25/10:30am 19.8 18.5 9.1 50 5.7 W 6 11 3 6 1026.1 - 0.0
25/10:00am 18.7 18.2 9.5 55 4.9 WNW 2 9 1 5 1026.3 1026.4 0.0
25/09:30am 17.4 16.1 9.3 59 4.3 E 6 9 3 5 1026.4 - 0.0
25/09:00am 15.0 14.4 9.1 68 3.1 S 2 6 1 3 1026.1 1026.2 0.0
25/08:30am 12.3 11.9 8.4 77 2.0 CALM 0 0 0 0 1025.8 - 0.0
25/08:00am 10.2 8.7 8.3 88 0.9 NE 6 7 3 4 1025.6 1025.6 0.0
25/07:30am 6.6 4.3 5.9 95 0.3 NE 7 7 4 4 1025.3 - 0.0
25/07:00am 3.7 0.8 2.8 94 0.4 E 7 9 4 5 1025.1 1025.1 0.0
25/06:30am 4.1 1.3 3.1 93 0.4 E 7 9 4 5 1024.8 - 0.0
25/06:00am 5.3 2.7 4.3 93 0.4 E 7 15 4 8 1024.7 1024.7 0.0
25/05:30am 4.6 1.5 3.4 92 0.5 E 9 19 5 10 1024.5 - 0.0
25/05:00am 5.9 4.7 4.7 92 0.5 CALM 0 4 0 2 1024.2 1024.2 0.0
25/04:30am 6.3 3.8 4.9 91 0.6 SSE 7 9 4 5 1023.9 - 0.0
25/04:00am 7.9 5.1 7.0 94 0.4 S 11 13 6 7 1023.9 1024.0 0.0
25/03:30am 7.2 4.2 6.0 92 0.6 SSW 11 11 6 6 1024.1 - 0.0
25/03:00am 6.2 3.3 4.5 89 0.7 SW 9 11 5 6 1024.1 1024.1 0.0
25/02:30am 6.2 3.8 4.2 87 0.9 S 6 7 3 4 1023.6 - 0.0
25/02:00am 7.4 5.0 5.4 87 0.9 WSW 7 9 4 5 1023.3 1023.3 0.0
25/01:30am 7.9 7.1 6.7 92 0.6 CALM 0 0 0 0 1023.4 - 0.0
25/01:00am 7.6 6.6 5.6 87 0.9 CALM 0 0 0 0 1023.5 1023.6 0.0
25/12:30am 9.2 7.9 7.5 89 0.8 NE 4 6 2 3 1023.6 - 0.0
25/12:00am 8.9 6.0 6.5 85 1.1 ENE 11 13 6 7 1023.7 1023.8 0.0
 
Date/Time
EST
Temp
°C
App
Temp
°C
Dew
Point
Rel
Hum
%
Delta-T
°C
Wind Press
QNH
hPa
Press
MSL
hPa
Rain
since 9 am
mm
Dir
 
Spd
km/h
Gust
km/h
Spd
kts
Gust
kts
24/11:30pm 9.1 6.2 6.5 84 1.2 E 11 13 6 7 1023.6 - 0.0
24/11:00pm 10.0 7.3 7.3 83 1.3 E 11 13 6 7 1023.7 1023.8 0.0
24/10:30pm 10.3 7.4 6.6 78 1.8 ENE 11 13 6 7 1023.6 - 0.0
24/10:00pm 12.0 9.1 8.1 77 1.9 ENE 13 17 7 9 1023.6 1023.7 0.0
24/09:30pm 12.2 8.7 7.3 72 2.4 E 15 17 8 9 1023.4 - 0.0
24/09:00pm 13.4 9.1 7.2 66 3.1 ENE 19 20 10 11 1023.0 1023.0 0.0
24/08:30pm 12.3 8.1 5.9 65 3.1 E 17 20 9 11 1022.8 - 0.0
24/08:00pm 12.1 8.5 5.0 62 3.3 E 13 15 7 8 1022.5 1022.5 0.0
24/07:30pm 13.2 9.4 4.1 54 4.2 E 13 17 7 9 1022.1 - 0.0
24/07:00pm 12.8 9.3 3.5 53 4.2 E 11 13 6 7 1021.8 1021.8 0.0
24/06:30pm 14.5 11.3 3.3 47 5.2 ENE 9 13 5 7 1021.3 - 0.0
24/06:00pm 15.7 11.9 4.1 46 5.5 E 13 15 7 8 1020.8 1020.8 0.0
24/05:30pm 17.0 13.2 3.7 41 6.3 E 13 15 7 8 1020.5 - 0.0
24/05:00pm 20.3 17.0 2.6 31 8.4 ENE 9 13 5 7 1020.2 1020.2 0.0
24/04:30pm 21.5 18.3 3.2 30 8.9 E 9 17 5 9 1020.0 - 0.0
24/04:00pm 21.9 18.9 2.1 27 9.4 NNE 7 15 4 8 1019.7 1019.7 0.0
24/03:30pm 20.9 16.8 2.2 29 8.8 N 13 19 7 10 1019.7 - 0.0
24/03:00pm 21.6 18.0 2.8 29 9.0 N 11 17 6 9 1019.7 1019.7 0.0
24/02:30pm 22.6 20.3 2.7 27 9.6 E 4 11 2 6 1019.7 - 0.0
24/02:00pm 22.4 19.2 3.0 28 9.4 NE 9 19 5 10 1019.9 1019.9 0.0
24/01:30pm 21.6 17.6 2.8 29 9.0 N 13 22 7 12 1020.0 - 0.0
24/01:00pm 21.4 18.2 3.1 30 8.8 NW 9 13 5 7 1020.4 1020.4 0.0
24/12:30pm 21.5 18.0 3.7 31 8.7 E 11 15 6 8 1020.7 - 0.0
24/12:00pm 21.2 19.1 3.9 32 8.5 N 4 13 2 7 1021.3 1021.3 0.0
24/11:30am 20.5 16.7 3.7 33 8.2 N 13 20 7 11 1022.1 - 0.0
24/11:00am 20.6 16.8 3.8 33 8.2 N 13 20 7 11 1022.5 1022.5 0.0
24/10:30am 19.2 17.4 7.0 45 6.3 NNE 6 13 3 7 1022.7 - 0.0
24/10:00am 18.4 16.2 7.8 50 5.5 N 9 15 5 8 1022.7 1022.7 0.0
24/09:30am 17.0 14.8 7.9 55 4.7 NNE 9 15 5 8 1022.8 - 0.0
24/09:00am 16.0 14.1 7.5 57 4.3 NE 7 11 4 6 1022.6 1022.6 0.0
24/08:30am 14.4 12.6 9.4 72 2.6 ENE 9 13 5 7 1022.1 - 0.0
24/08:00am 12.6 10.7 9.2 80 1.7 ESE 9 11 5 6 1021.5 1021.5 0.0
24/07:30am 10.6 8.3 9.0 90 0.8 ESE 11 13 6 7 1021.5 - 0.0
24/07:00am 8.7 6.1 7.6 93 0.5 SE 11 11 6 6 1021.7 1021.7 0.0
24/06:30am 6.9 4.1 5.2 89 0.8 SE 9 11 5 6 1021.5 - 0.0
24/06:00am 9.7 8.0 8.5 92 0.6 SSE 7 9 4 5 1021.5 1021.5 0.0
24/05:30am 9.5 9.1 8.3 92 0.6 CALM 0 0 0 0 1021.0 - 0.0
24/05:00am 10.0 8.6 7.4 84 1.3 ENE 4 7 2 4 1020.5 1020.5 0.0
24/04:30am 11.3 9.5 8.0 80 1.6 NE 7 11 4 6 1020.2 - 0.0
24/04:00am 12.1 9.0 8.8 80 1.7 E 15 19 8 10 1019.9 1019.9 0.0
24/03:30am 12.2 9.1 9.0 81 1.6 E 15 19 8 10 1020.2 - 0.0
24/03:00am 12.4 9.0 9.2 81 1.6 E 17 20 9 11 1020.4 1020.4 0.0
24/02:30am 12.5 9.1 9.1 80 1.7 E 17 20 9 11 1020.6 - 0.0
24/02:00am 12.3 8.8 8.8 79 1.8 E 17 20 9 11 1020.6 1020.6 0.0
24/01:30am 12.5 9.3 8.6 77 2.0 E 15 20 8 11 1021.2 - 0.0
24/01:00am 13.1 9.0 8.8 75 2.2 E 20 26 11 14 1021.2 1021.2 0.0
24/12:30am 13.2 8.7 8.7 74 2.3 E 22 32 12 17 1021.1 - 0.0
24/12:00am 13.3 8.8 8.4 72 2.5 E 22 28 12 15 1021.2 1021.2 0.0
 
Date/Time
EST
Temp
°C
App
Temp
°C
Dew
Point
Rel
Hum
%
Delta-T
°C
Wind Press
QNH
hPa
Press
MSL
hPa
Rain
since 9 am
mm
Dir
 
Spd
km/h
Gust
km/h
Spd
kts
Gust
kts
23/11:30pm 13.5 8.9 8.1 70 2.7 E 22 28 12 15 1021.4 - 0.0
23/11:00pm 13.4 8.3 7.8 69 2.8 E 24 30 13 16 1021.3 1021.3 0.0
23/10:30pm 13.6 8.8 7.2 65 3.2 E 22 28 12 15 1021.5 - 0.0
23/10:00pm 12.2 8.0 5.6 64 3.1 E 17 20 9 11 1021.5 1021.5 0.0
23/09:30pm 11.7 8.2 5.3 65 3.0 E 13 17 7 9 1021.4 - 0.0
23/09:00pm 11.8 7.8 5.0 63 3.2 E 15 15 8 8 1021.1 1021.1 0.0
23/08:30pm 11.4 7.7 4.6 63 3.1 E 13 15 7 8 1021.1 - 0.0
23/08:00pm 12.4 8.0 4.9 60 3.5 E 17 17 9 9 1020.8 1020.8 0.0
23/07:30pm 13.6 9.2 5.0 56 4.1 E 17 20 9 11 1020.3 - 0.0

Other Formats:

Comma delimited format used in spreadsheet applications
http://www.bom.gov.au/fwo/IDQ60801/IDQ60801.94542.axf

JavaScript Object Notation format (JSON) in row-major order
http://www.bom.gov.au/fwo/IDQ60801/IDQ60801.94542.json